Anamosa, IA

6:07 PM CDT on September 02, 2015 (GMT -0500)
Whittier | | Change Station
CLOSE
Current Station
Personal Weather Station
Location: Springville, IA
Elevation: 885 ft
Nearby Weather Stations

Elev 885 ft 42.08 °N, 91.46 °W | Updated 10 seconds ago

Partly Cloudy
Partly Cloudy
82.1 °F
Feels Like 86 °F
N
3.8
Wind Variable Wind from SSE
Gusts 5.8 mph

Today
High -- | Low -- °F
--% Chance of Precip.
Yesterday
High -- | Low -- °F
Precip. -- in
6:31 AM 7:37 PM
Waning Gibbous, 76% visible
Pressure 29.93 in
Visibility 10.0 miles
Clouds Mostly Cloudy 9500 ft
Heat Index 86 °F
Dew Point 71 °F
Humidity 69%
Rainfall 0.00 in
Snow Depth Not available.
UV 1 out of 12
Pollen 10.40 out of 12
Air Quality Not available.
Flu Activity Not available.
METAR KMXO 022255Z AUTO VRB06KT 10SM BKN095 28/22 A2993 RMK AO2
Pressure 29.93 in
Visibility 10.0 miles
Clouds Mostly Cloudy 9500 ft
Heat Index 86 °F
Dew Point 71 °F
Humidity 69%
Rainfall 0.00 in
Snow Depth Not available.
UV 1 out of 12
Pollen 10.40 out of 12
Air Quality Not available.
Flu Activity Not available.
METAR KMXO 022255Z AUTO VRB06KT 10SM BKN095 28/22 A2993 RMK AO2

10-Day Weather Forecast

×

Almanac

Astronomy

Sep. 02, 2015 Rise Set
Actual Time
Civil Twilight
Nautical Twilight
Astronomical Twilight
Moon
Length of Visible Light
Length of Day
Tomorrow will be .
, % of the Moon is Illuminated

Today's Extremes

State Highs State Lows

Community

WunderPhotos

Upload Photos

1,851,821 photos uploaded!

WunderBlogs® & News

Nearby

Air Quality

  Air Quality AQ Index Pollutant
Not available.

Snow Depth

Station Depth Elevation

Earthquake Activity

City Distance Mag. Time & Date
Minimum magnitude displayed is 2.5.

Coastal Water Temperatures

Place Temperature

Stations

Nearby Weather Stations

Station Location Temp. Windchill Dew Point Humidity Wind Precip. Elev Updated Type